createdAt,value
2018-08-31T00:00:00.806Z,10.13
2018-08-31T00:02:37.218Z,5.57
2018-08-31T00:05:49.725Z,4.20
2018-08-31T00:10:34.714Z,5.57
2018-08-31T00:13:03.259Z,4.37
2018-08-31T00:15:31.754Z,5.23
2018-08-31T00:18:00.265Z,7.90
2018-08-31T00:20:28.731Z,4.47
2018-08-31T00:22:57.165Z,5.23
2018-08-31T00:26:08.527Z,3.70
2018-08-31T00:28:50.819Z,9.73
2018-08-31T00:32:29.311Z,5.53
2018-08-31T00:35:09.721Z,4.87
2018-08-31T00:39:56.303Z,5.00
2018-08-31T00:42:46.081Z,6.20
2018-08-31T00:45:35.499Z,5.17
2018-08-31T00:48:04.373Z,5.67
2018-08-31T00:50:33.273Z,5.87
2018-08-31T00:53:02.260Z,5.03
2018-08-31T00:55:31.039Z,5.47
2018-08-31T00:57:59.731Z,6.53
2018-08-31T01:00:28.225Z,6.10
2018-08-31T01:02:56.807Z,5.17
2018-08-31T01:05:25.239Z,4.53
2018-08-31T01:07:53.761Z,6.23
2018-08-31T01:10:23.465Z,5.77
2018-08-31T01:12:52.529Z,5.63
2018-08-31T01:15:21.033Z,6.63
2018-08-31T01:17:49.464Z,6.77
2018-08-31T01:20:17.916Z,6.77
2018-08-31T01:22:46.495Z,8.47
2018-08-31T01:25:15.081Z,6.37
2018-08-31T01:27:43.518Z,8.17
2018-08-31T01:30:12.045Z,10.40
2018-08-31T01:32:40.549Z,4.47
2018-08-31T01:35:09.167Z,7.63
2018-08-31T01:37:37.615Z,6.70
2018-08-31T01:40:06.481Z,7.23
2018-08-31T01:42:35.281Z,6.33
2018-08-31T01:45:03.954Z,5.37
2018-08-31T01:47:32.852Z,4.30
2018-08-31T01:50:07.870Z,5.47
2018-08-31T01:52:36.640Z,9.23
2018-08-31T01:55:05.146Z,6.37
2018-08-31T01:57:33.600Z,6.10
2018-08-31T02:00:02.125Z,6.73
2018-08-31T02:02:30.554Z,6.23
2018-08-31T02:04:59.041Z,6.70
2018-08-31T02:07:27.460Z,7.07
2018-08-31T02:09:55.889Z,6.83
2018-08-31T02:12:24.383Z,8.30
2018-08-31T02:14:52.914Z,8.57
2018-08-31T02:17:21.339Z,6.60
2018-08-31T02:19:49.855Z,10.40
2018-08-31T02:22:18.379Z,7.87
2018-08-31T02:24:46.842Z,4.87
2018-08-31T02:27:15.285Z,7.57
2018-08-31T02:29:43.716Z,6.20
2018-08-31T02:32:12.284Z,9.00
2018-08-31T02:34:40.875Z,6.97
2018-08-31T02:37:09.400Z,5.57
2018-08-31T02:39:37.826Z,6.53
2018-08-31T02:42:06.319Z,7.33
2018-08-31T02:44:34.749Z,7.00
2018-08-31T02:47:03.198Z,6.10
2018-08-31T02:49:31.766Z,6.47
2018-08-31T02:52:00.371Z,7.90
2018-08-31T02:54:28.808Z,6.07
2018-08-31T02:56:57.260Z,8.97
2018-08-31T02:59:25.686Z,8.70
2018-08-31T03:01:54.125Z,9.03
2018-08-31T03:04:22.695Z,6.23
2018-08-31T03:06:51.155Z,6.47
2018-08-31T03:09:19.710Z,8.47
2018-08-31T03:11:48.331Z,6.50
2018-08-31T03:14:16.820Z,9.97
2018-08-31T03:16:45.261Z,8.50
2018-08-31T03:19:13.742Z,7.30
2018-08-31T03:21:42.158Z,8.53
2018-08-31T03:24:10.699Z,5.33
2018-08-31T03:26:39.174Z,8.70
2018-08-31T03:29:07.952Z,8.27
2018-08-31T03:31:36.418Z,6.53
2018-08-31T03:34:04.994Z,7.70
2018-08-31T03:36:33.503Z,9.23
2018-08-31T03:39:02.084Z,10.37
2018-08-31T03:41:30.672Z,6.63
2018-08-31T03:43:59.085Z,8.67
2018-08-31T03:46:27.535Z,8.43
2018-08-31T03:48:55.998Z,6.87
2018-08-31T03:51:24.573Z,6.60
2018-08-31T03:53:53.054Z,9.37
2018-08-31T03:56:21.925Z,8.23
2018-08-31T03:58:50.391Z,9.17
2018-08-31T04:01:18.827Z,7.17
2018-08-31T04:03:47.307Z,6.63
2018-08-31T04:06:15.737Z,7.63
2018-08-31T04:08:44.162Z,8.63
2018-08-31T04:11:12.821Z,8.00
2018-08-31T04:13:41.263Z,9.40
2018-08-31T04:16:09.736Z,8.33
2018-08-31T04:18:38.247Z,11.53
2018-08-31T04:21:06.689Z,5.33
2018-08-31T04:23:35.183Z,8.30
2018-08-31T04:26:03.833Z,8.77
2018-08-31T04:28:32.343Z,9.37
2018-08-31T04:31:00.876Z,7.40
2018-08-31T04:33:29.351Z,11.47
2018-08-31T04:35:57.909Z,8.47
2018-08-31T04:38:26.387Z,6.93
2018-08-31T04:40:54.876Z,9.37
2018-08-31T04:43:23.333Z,10.37
2018-08-31T04:45:51.757Z,15.97
2018-08-31T04:48:20.199Z,13.73
2018-08-31T04:50:48.646Z,9.50
2018-08-31T04:53:17.183Z,12.10
2018-08-31T04:55:45.737Z,16.47
2018-08-31T04:58:14.261Z,12.43
2018-08-31T05:00:42.705Z,14.43
2018-08-31T05:03:11.353Z,11.53
2018-08-31T05:05:39.873Z,9.93
2018-08-31T05:08:08.385Z,14.70
2018-08-31T05:10:37.008Z,11.53
2018-08-31T05:13:05.774Z,12.93
2018-08-31T05:15:34.189Z,12.23
2018-08-31T05:18:02.735Z,10.37
2018-08-31T05:20:31.224Z,11.53
2018-08-31T05:22:59.813Z,11.63
2018-08-31T05:25:28.372Z,9.57
2018-08-31T05:27:56.832Z,9.10
2018-08-31T05:30:26.375Z,11.80
2018-08-31T05:32:54.820Z,7.67
2018-08-31T05:35:23.276Z,10.43
2018-08-31T05:37:51.723Z,11.67
2018-08-31T05:40:20.194Z,9.07
2018-08-31T05:42:48.618Z,8.73
2018-08-31T05:45:17.166Z,10.03
2018-08-31T05:47:45.616Z,7.87
2018-08-31T05:50:14.625Z,9.33
2018-08-31T05:52:43.428Z,7.70
2018-08-31T05:55:11.884Z,7.87
2018-08-31T05:57:40.357Z,8.10
2018-08-31T06:00:08.910Z,5.33
2018-08-31T06:02:37.464Z,11.37
2018-08-31T06:05:05.921Z,7.30
2018-08-31T06:07:34.370Z,9.63
2018-08-31T06:10:03.142Z,6.97
2018-08-31T06:12:31.686Z,11.37
2018-08-31T06:15:00.167Z,7.00
2018-08-31T06:17:28.684Z,7.00
2018-08-31T06:19:57.572Z,6.73
2018-08-31T06:22:26.483Z,9.67
2018-08-31T06:24:55.491Z,6.13
2018-08-31T06:27:23.986Z,7.17
2018-08-31T06:29:52.688Z,9.20
2018-08-31T06:32:21.177Z,7.70
2018-08-31T06:34:49.706Z,8.13
2018-08-31T06:37:18.163Z,8.63
2018-08-31T06:39:46.679Z,7.93
2018-08-31T06:42:15.123Z,10.93
2018-08-31T06:44:44.506Z,15.00
2018-08-31T06:47:13.027Z,13.77
2018-08-31T06:49:41.468Z,9.07
2018-08-31T06:52:09.916Z,9.87
2018-08-31T06:54:38.405Z,10.87
2018-08-31T06:57:06.865Z,11.03
2018-08-31T06:59:35.354Z,13.97
2018-08-31T07:02:03.875Z,14.40
2018-08-31T07:04:32.371Z,10.33
2018-08-31T07:07:00.861Z,14.00
2018-08-31T07:09:29.315Z,11.47
2018-08-31T07:11:57.773Z,12.33
2018-08-31T07:14:26.239Z,6.67
2018-08-31T07:16:54.689Z,13.73
2018-08-31T07:19:23.232Z,11.60
2018-08-31T07:21:51.693Z,11.47
2018-08-31T07:24:20.183Z,11.70
2018-08-31T07:26:48.695Z,12.43
2018-08-31T07:29:17.129Z,10.90
2018-08-31T07:31:45.611Z,8.80
2018-08-31T07:34:14.059Z,11.67
2018-08-31T07:36:42.496Z,8.33
2018-08-31T07:39:11.535Z,9.10
2018-08-31T07:41:40.117Z,7.23
2018-08-31T07:44:09.537Z,9.20
2018-08-31T07:46:38.252Z,17.47
2018-08-31T07:49:07.193Z,9.77
2018-08-31T07:51:35.648Z,11.77
2018-08-31T07:54:04.170Z,11.87
2018-08-31T07:56:32.634Z,7.73
2018-08-31T07:59:01.098Z,6.93
2018-08-31T08:01:29.567Z,10.67
2018-08-31T08:03:58.025Z,8.57
2018-08-31T08:06:26.460Z,8.67
2018-08-31T08:08:54.920Z,4.57
2018-08-31T08:11:23.569Z,7.50
2018-08-31T08:13:52.526Z,7.97
2018-08-31T08:16:20.972Z,9.57
2018-08-31T08:18:50.877Z,12.33
2018-08-31T08:21:19.439Z,5.17
2018-08-31T08:23:48.036Z,4.40
2018-08-31T08:26:16.680Z,6.47
2018-08-31T08:28:45.155Z,6.60
2018-08-31T08:31:13.617Z,11.87
2018-08-31T08:33:42.122Z,5.20
2018-08-31T08:36:10.736Z,6.93
2018-08-31T08:38:39.572Z,8.93
2018-08-31T08:41:08.039Z,8.80
2018-08-31T08:43:36.470Z,5.13
2018-08-31T08:46:05.059Z,6.27
2018-08-31T08:48:33.703Z,11.00
2018-08-31T08:51:02.425Z,7.73
2018-08-31T08:53:30.919Z,5.70
2018-08-31T08:56:02.165Z,7.80
2018-08-31T08:58:30.624Z,5.90
2018-08-31T09:00:59.071Z,7.60
2018-08-31T09:03:27.542Z,6.77
2018-08-31T09:05:56.009Z,4.60
2018-08-31T09:08:24.489Z,7.60
2018-08-31T09:10:52.957Z,3.97
2018-08-31T09:13:21.477Z,6.13
2018-08-31T09:15:49.948Z,4.37
2018-08-31T09:18:25.808Z,8.70
2018-08-31T09:20:54.774Z,6.37
2018-08-31T09:23:23.255Z,6.63
2018-08-31T09:25:52.377Z,6.13
2018-08-31T09:28:20.881Z,4.93
2018-08-31T09:30:49.400Z,5.03
2018-08-31T09:33:18.416Z,10.93
2018-08-31T09:35:47.086Z,6.10
2018-08-31T09:38:15.610Z,5.20
2018-08-31T09:40:44.038Z,5.33
2018-08-31T09:43:12.519Z,6.93
2018-08-31T09:45:41.006Z,7.60
2018-08-31T09:48:09.470Z,4.77
2018-08-31T09:50:37.906Z,5.73
2018-08-31T09:53:06.399Z,4.77
2018-08-31T09:55:34.863Z,6.03
2018-08-31T09:58:03.328Z,4.73
2018-08-31T10:00:37.218Z,5.93
2018-08-31T10:03:10.858Z,7.30
2018-08-31T10:05:39.300Z,4.30
2018-08-31T10:08:07.773Z,4.20
2018-08-31T10:10:36.302Z,7.90
2018-08-31T10:13:04.773Z,6.50
2018-08-31T10:15:33.258Z,2.93
2018-08-31T10:18:01.741Z,5.23
2018-08-31T10:20:30.216Z,7.17
2018-08-31T10:22:58.704Z,3.97
2018-08-31T10:25:27.162Z,5.00
2018-08-31T10:27:55.592Z,4.23
2018-08-31T10:30:24.075Z,7.33
2018-08-31T10:32:52.605Z,6.37
2018-08-31T10:35:21.069Z,6.20
2018-08-31T10:37:49.554Z,7.17
2018-08-31T10:40:18.204Z,4.23
2018-08-31T10:42:46.655Z,5.67
2018-08-31T10:45:15.153Z,3.63
2018-08-31T10:47:43.667Z,4.23
2018-08-31T10:50:12.208Z,4.83
2018-08-31T10:52:40.684Z,2.93
2018-08-31T10:55:09.163Z,5.13
2018-08-31T10:57:37.717Z,2.67
2018-08-31T11:00:06.396Z,4.13
2018-08-31T11:02:34.839Z,6.70
2018-08-31T11:05:03.410Z,4.67
2018-08-31T11:07:31.873Z,5.10
2018-08-31T11:10:00.682Z,3.80
2018-08-31T11:12:34.308Z,7.10
2018-08-31T11:15:02.845Z,3.83
2018-08-31T11:17:31.301Z,4.37
2018-08-31T11:19:59.798Z,4.53
2018-08-31T11:22:28.280Z,3.50
2018-08-31T11:24:56.735Z,2.40
2018-08-31T11:27:25.207Z,4.30
2018-08-31T11:29:53.675Z,3.90
2018-08-31T11:32:22.186Z,4.67
2018-08-31T11:34:50.657Z,4.40
2018-08-31T11:37:19.160Z,6.17
2018-08-31T11:40:01.623Z,4.13
2018-08-31T11:42:30.105Z,5.80
2018-08-31T11:45:00.854Z,5.03
2018-08-31T11:47:29.309Z,3.77
2018-08-31T11:49:57.809Z,2.87
2018-08-31T11:52:26.290Z,4.20
2018-08-31T11:54:54.833Z,3.33
2018-08-31T11:57:23.311Z,3.77
2018-08-31T11:59:51.807Z,3.03
2018-08-31T12:02:21.271Z,4.60
2018-08-31T12:04:49.754Z,2.33
2018-08-31T12:07:18.249Z,2.83
2018-08-31T12:09:46.700Z,4.20
2018-08-31T12:12:15.145Z,3.30
2018-08-31T12:14:43.587Z,2.13
2018-08-31T12:17:12.143Z,6.87
2018-08-31T12:19:40.623Z,2.47
2018-08-31T12:22:09.110Z,3.43
2018-08-31T12:24:37.615Z,2.93
2018-08-31T12:27:06.118Z,3.33
2018-08-31T12:29:34.613Z,3.30
2018-08-31T12:32:03.098Z,5.13
2018-08-31T12:34:31.573Z,3.90
2018-08-31T12:37:00.043Z,2.83
2018-08-31T12:39:28.510Z,5.67
2018-08-31T12:41:56.970Z,3.73
2018-08-31T12:44:25.820Z,4.63
2018-08-31T12:46:54.316Z,3.40
2018-08-31T12:49:22.770Z,6.97
2018-08-31T12:51:51.221Z,3.20
2018-08-31T12:54:19.717Z,4.63
2018-08-31T12:56:48.233Z,3.80
2018-08-31T12:59:16.687Z,5.03
2018-08-31T13:01:45.157Z,4.40
2018-08-31T13:04:13.653Z,3.10
2018-08-31T13:06:42.124Z,2.73
2018-08-31T13:09:11.334Z,4.20
2018-08-31T13:11:41.351Z,3.97
2018-08-31T13:14:10.238Z,4.37
2018-08-31T13:16:40.413Z,3.50
2018-08-31T13:19:08.887Z,3.17
2018-08-31T13:21:37.377Z,3.90
2018-08-31T13:24:05.929Z,3.07
2018-08-31T13:26:34.406Z,2.90
2018-08-31T13:29:02.901Z,2.77
2018-08-31T13:31:31.375Z,3.33
2018-08-31T13:33:59.895Z,3.80
2018-08-31T13:36:28.437Z,4.37
2018-08-31T13:38:56.898Z,4.03
2018-08-31T13:41:25.369Z,5.10
2018-08-31T13:43:53.823Z,4.27
2018-08-31T13:46:22.301Z,4.13
2018-08-31T13:48:50.803Z,4.87
2018-08-31T13:51:19.272Z,7.23
2018-08-31T13:53:47.746Z,4.23
2018-08-31T13:56:16.210Z,5.00
2018-08-31T13:58:44.735Z,3.60
2018-08-31T14:01:13.220Z,3.53
2018-08-31T14:03:41.723Z,2.70
2018-08-31T14:06:10.170Z,1.50
2018-08-31T14:08:38.627Z,2.10
2018-08-31T14:11:07.125Z,1.93
2018-08-31T14:13:35.574Z,3.70
2018-08-31T14:16:04.048Z,1.77
2018-08-31T14:18:32.568Z,2.40
2018-08-31T14:21:01.105Z,5.80
2018-08-31T14:23:29.513Z,1.80
2018-08-31T14:25:57.972Z,1.83
2018-08-31T14:28:26.414Z,4.47
2018-08-31T14:30:54.918Z,1.70
2018-08-31T14:33:23.461Z,1.87
2018-08-31T14:35:51.944Z,1.47
2018-08-31T14:38:20.477Z,3.80
2018-08-31T14:40:48.959Z,2.17
2018-08-31T14:43:17.436Z,4.70
2018-08-31T14:45:45.849Z,6.40
2018-08-31T14:48:14.358Z,2.37
2018-08-31T14:50:42.849Z,2.70
2018-08-31T14:53:11.331Z,3.50
2018-08-31T14:55:39.857Z,3.30
2018-08-31T14:58:08.341Z,3.97
2018-08-31T15:00:36.796Z,5.20
2018-08-31T15:03:05.339Z,2.40
2018-08-31T15:05:33.796Z,1.87
2018-08-31T15:08:02.286Z,2.83
2018-08-31T15:10:30.786Z,3.40
2018-08-31T15:12:59.316Z,3.37
2018-08-31T15:15:27.757Z,3.37
2018-08-31T15:17:56.287Z,2.07
2018-08-31T15:20:24.755Z,2.97
2018-08-31T15:22:53.244Z,2.87
2018-08-31T15:25:21.756Z,2.70
2018-08-31T15:27:50.275Z,4.17
2018-08-31T15:30:18.769Z,2.23
2018-08-31T15:32:47.233Z,1.60
2018-08-31T15:35:15.763Z,2.80
2018-08-31T15:37:44.255Z,2.73
2018-08-31T15:40:12.765Z,2.77
2018-08-31T15:42:41.242Z,5.97
2018-08-31T15:45:09.822Z,4.43
2018-08-31T15:47:38.264Z,3.00
2018-08-31T15:50:06.780Z,3.50
2018-08-31T15:52:35.258Z,3.47
2018-08-31T15:55:03.768Z,1.80
2018-08-31T15:57:32.303Z,4.70
2018-08-31T16:00:00.793Z,2.63
2018-08-31T16:02:29.281Z,2.93
2018-08-31T16:04:57.749Z,2.57
2018-08-31T16:07:26.217Z,2.23
2018-08-31T16:09:54.669Z,3.90
2018-08-31T16:12:23.307Z,2.70
2018-08-31T16:14:51.794Z,3.50
2018-08-31T16:17:20.258Z,3.13
2018-08-31T16:19:48.747Z,2.57
2018-08-31T16:22:17.193Z,2.87
2018-08-31T16:24:45.630Z,4.70
2018-08-31T16:27:14.087Z,5.03
2018-08-31T16:29:42.539Z,4.63
2018-08-31T16:32:10.998Z,2.73
2018-08-31T16:34:39.483Z,2.73
2018-08-31T16:37:07.915Z,5.10
2018-08-31T16:39:36.393Z,6.03
2018-08-31T16:42:04.884Z,3.97
2018-08-31T16:44:33.340Z,4.63
2018-08-31T16:47:01.867Z,4.80
2018-08-31T16:49:30.304Z,5.53
2018-08-31T16:51:58.778Z,3.77
2018-08-31T16:54:27.264Z,3.33
2018-08-31T16:56:55.914Z,4.03
2018-08-31T16:59:24.394Z,2.30
2018-08-31T17:01:53.029Z,3.57
2018-08-31T17:04:21.530Z,3.93
2018-08-31T17:06:49.989Z,5.13
2018-08-31T17:09:18.506Z,2.17
2018-08-31T17:11:46.940Z,3.33
2018-08-31T17:14:15.373Z,2.57
2018-08-31T17:16:43.853Z,2.30
2018-08-31T17:19:12.371Z,3.83
2018-08-31T17:21:40.872Z,3.57
2018-08-31T17:24:09.394Z,2.70
2018-08-31T17:26:43.346Z,5.23
2018-08-31T17:29:17.284Z,2.63
2018-08-31T17:31:51.213Z,2.83
2018-08-31T17:34:25.160Z,3.90
2018-08-31T17:36:59.093Z,5.73
2018-08-31T17:39:27.597Z,5.33
2018-08-31T17:41:56.104Z,3.73
2018-08-31T17:44:24.626Z,4.10
2018-08-31T17:46:53.099Z,4.60
2018-08-31T17:49:21.607Z,4.83
2018-08-31T17:51:50.097Z,3.57
2018-08-31T17:54:18.608Z,4.63
2018-08-31T17:56:47.099Z,3.43
2018-08-31T17:59:15.580Z,3.50
2018-08-31T18:01:44.199Z,4.03
2018-08-31T18:04:12.774Z,3.67
2018-08-31T18:06:41.162Z,3.73
2018-08-31T18:09:10.256Z,3.43
2018-08-31T18:11:38.754Z,5.87
2018-08-31T18:14:07.259Z,5.33
2018-08-31T18:16:35.781Z,3.27
2018-08-31T18:19:04.235Z,4.00
2018-08-31T18:21:32.692Z,5.80
2018-08-31T18:24:01.165Z,2.97
2018-08-31T18:26:29.617Z,3.97
2018-08-31T18:28:58.054Z,4.43
2018-08-31T18:31:26.497Z,2.70
2018-08-31T18:33:55.012Z,5.83
2018-08-31T18:36:23.445Z,4.30
2018-08-31T18:38:51.944Z,4.30
2018-08-31T18:41:20.419Z,3.43
2018-08-31T18:43:48.910Z,3.87
2018-08-31T18:46:17.447Z,5.03
2018-08-31T18:48:45.885Z,3.97
2018-08-31T18:51:14.344Z,3.13
2018-08-31T18:53:42.858Z,5.40
2018-08-31T18:56:11.331Z,2.77
2018-08-31T18:58:39.826Z,3.40
2018-08-31T19:01:08.360Z,3.47
2018-08-31T19:03:36.828Z,3.23
2018-08-31T19:06:05.277Z,3.87
2018-08-31T19:08:33.786Z,4.80
2018-08-31T19:11:02.231Z,3.80
2018-08-31T19:13:30.699Z,3.27
2018-08-31T19:15:59.257Z,5.87
2018-08-31T19:18:27.756Z,2.77
2018-08-31T19:20:56.244Z,2.10
2018-08-31T19:23:24.722Z,3.43
2018-08-31T19:25:53.224Z,5.63
2018-08-31T19:28:21.697Z,3.57
2018-08-31T19:30:50.228Z,2.33
2018-08-31T19:33:18.919Z,3.57
2018-08-31T19:35:47.404Z,5.10
2018-08-31T19:38:15.892Z,3.00
2018-08-31T19:40:44.624Z,3.43
2018-08-31T19:43:13.075Z,2.67
2018-08-31T19:45:41.516Z,3.00
2018-08-31T19:48:09.965Z,3.83
2018-08-31T19:50:38.545Z,4.73
2018-08-31T19:53:07.082Z,2.77
2018-08-31T19:55:35.813Z,5.73
2018-08-31T19:58:04.431Z,4.50
2018-08-31T20:00:32.928Z,4.90
2018-08-31T20:03:02.273Z,4.33
2018-08-31T20:05:34.959Z,5.50
2018-08-31T20:08:03.458Z,3.17
2018-08-31T20:10:32.226Z,3.17
2018-08-31T20:13:00.724Z,3.67
2018-08-31T20:15:29.169Z,5.37
2018-08-31T20:17:57.628Z,4.50
2018-08-31T20:20:26.062Z,5.37
2018-08-31T20:22:54.529Z,4.57
2018-08-31T20:25:22.993Z,3.50
2018-08-31T20:27:51.458Z,3.37
2018-08-31T20:30:19.917Z,4.80
2018-08-31T20:32:48.361Z,3.60
2018-08-31T20:35:16.859Z,3.93
2018-08-31T20:37:45.329Z,5.20
2018-08-31T20:40:13.773Z,4.17
2018-08-31T20:42:42.309Z,3.53
2018-08-31T20:45:10.744Z,3.70
2018-08-31T20:47:39.218Z,4.67
2018-08-31T20:50:07.755Z,7.10
2018-08-31T20:52:36.203Z,5.47
2018-08-31T20:55:04.808Z,4.13
2018-08-31T20:57:33.261Z,4.17
2018-08-31T21:00:01.728Z,5.00
2018-08-31T21:02:30.457Z,3.67
2018-08-31T21:04:58.935Z,4.30
2018-08-31T21:07:27.427Z,4.23
2018-08-31T21:09:55.892Z,3.73
2018-08-31T21:12:24.374Z,6.53
2018-08-31T21:14:52.844Z,4.27
2018-08-31T21:17:21.257Z,3.87
2018-08-31T21:19:49.765Z,4.50
2018-08-31T21:22:18.215Z,5.63
2018-08-31T21:24:46.648Z,4.23
2018-08-31T21:27:15.181Z,4.10
2018-08-31T21:29:43.654Z,3.73
2018-08-31T21:32:12.226Z,5.23
2018-08-31T21:34:40.753Z,4.30
2018-08-31T21:37:09.205Z,5.40
2018-08-31T21:39:37.646Z,4.60
2018-08-31T21:42:06.195Z,3.97
2018-08-31T21:44:34.686Z,4.07
2018-08-31T21:47:03.358Z,4.33
2018-08-31T21:49:31.876Z,4.77
2018-08-31T21:52:00.364Z,4.63
2018-08-31T21:54:29.086Z,3.30
2018-08-31T21:56:57.571Z,5.03
2018-08-31T21:59:26.061Z,4.57
2018-08-31T22:01:55.761Z,3.40
2018-08-31T22:04:24.877Z,4.83
2018-08-31T22:06:53.537Z,3.87
2018-08-31T22:09:22.022Z,3.90
2018-08-31T22:11:50.485Z,5.13
2018-08-31T22:14:18.955Z,4.37
2018-08-31T22:16:47.491Z,4.00
2018-08-31T22:19:15.993Z,4.90
2018-08-31T22:21:44.424Z,4.40
2018-08-31T22:24:12.874Z,3.70
2018-08-31T22:26:41.330Z,6.53
2018-08-31T22:29:09.774Z,4.57
2018-08-31T22:31:38.237Z,6.63
2018-08-31T22:34:06.820Z,6.40
2018-08-31T22:36:35.260Z,5.90
2018-08-31T22:39:04.229Z,6.57
2018-08-31T22:41:32.683Z,4.80
2018-08-31T22:44:01.119Z,3.37
2018-08-31T22:46:29.550Z,2.60
2018-08-31T22:48:58.016Z,4.27
2018-08-31T22:51:26.476Z,5.60
2018-08-31T22:53:55.110Z,4.87
2018-08-31T22:56:23.550Z,4.30
2018-08-31T22:58:52.010Z,3.80
2018-08-31T23:01:20.466Z,4.77
2018-08-31T23:03:48.916Z,3.77
2018-08-31T23:06:17.513Z,5.50
2018-08-31T23:08:45.969Z,4.80
2018-08-31T23:11:14.509Z,4.03
2018-08-31T23:13:44.126Z,4.90
2018-08-31T23:16:12.610Z,6.80
2018-08-31T23:18:41.411Z,5.23
2018-08-31T23:21:10.335Z,4.23
2018-08-31T23:23:44.322Z,5.93
2018-08-31T23:26:12.765Z,5.10
2018-08-31T23:28:41.183Z,4.57
2018-08-31T23:31:09.755Z,4.97
2018-08-31T23:33:38.270Z,5.73
2018-08-31T23:36:06.720Z,4.23
2018-08-31T23:38:35.349Z,4.97
2018-08-31T23:41:03.861Z,5.43
2018-08-31T23:43:32.700Z,7.50
2018-08-31T23:46:01.216Z,4.87
2018-08-31T23:48:29.662Z,4.77
2018-08-31T23:50:58.165Z,8.50
2018-08-31T23:53:26.659Z,5.67
2018-08-31T23:55:55.091Z,6.30
2018-08-31T23:58:23.522Z,5.77
